createdAt,value
2023-04-14T00:00:18.663Z,3.55
2023-04-14T00:02:47.878Z,4.95
2023-04-14T00:05:16.722Z,3.72
2023-04-14T00:07:45.706Z,3.17
2023-04-14T00:10:14.538Z,5.28
2023-04-14T00:12:44.695Z,5.32
2023-04-14T00:15:13.774Z,2.90
2023-04-14T00:17:42.728Z,4.20
2023-04-14T00:20:12.096Z,3.15
2023-04-14T00:22:40.938Z,4.90
2023-04-14T00:25:10.271Z,5.75
2023-04-14T00:27:38.996Z,1.45
2023-04-14T00:30:10.463Z,2.33
2023-04-14T00:32:40.758Z,5.20
2023-04-14T00:35:10.096Z,2.50
2023-04-14T00:37:38.819Z,1.05
2023-04-14T00:40:10.989Z,2.38
2023-04-14T00:42:44.382Z,2.08
2023-04-14T00:45:15.360Z,2.33
2023-04-14T00:47:47.279Z,2.17
2023-04-14T00:50:18.095Z,1.90
2023-04-14T00:52:49.131Z,2.90
2023-04-14T00:55:21.338Z,2.67
2023-04-14T00:57:51.578Z,3.85
2023-04-14T01:00:22.404Z,4.97
2023-04-14T01:02:51.664Z,2.15
2023-04-14T01:05:21.207Z,3.58
2023-04-14T01:07:50.686Z,3.28
2023-04-14T01:10:19.734Z,2.15
2023-04-14T01:13:06.668Z,2.95
2023-04-14T01:15:42.790Z,5.50
2023-04-14T01:18:20.816Z,5.20
2023-04-14T01:20:52.734Z,3.63
2023-04-14T01:23:27.040Z,2.92
2023-04-14T01:26:18.281Z,3.63
2023-04-14T01:29:25.838Z,5.25
2023-04-14T01:32:03.246Z,3.75
2023-04-14T01:34:36.204Z,4.18
2023-04-14T01:37:08.330Z,4.30
2023-04-14T01:39:41.268Z,4.43
2023-04-14T01:42:14.308Z,4.32
2023-04-14T01:44:43.991Z,4.15
2023-04-14T01:47:16.698Z,2.85
2023-04-14T01:49:47.934Z,5.00
2023-04-14T01:52:18.308Z,5.22
2023-04-14T01:54:51.182Z,2.75
2023-04-14T01:57:23.008Z,4.47
2023-04-14T01:59:54.879Z,5.97
2023-04-14T02:02:26.845Z,5.63
2023-04-14T02:04:57.546Z,6.00
2023-04-14T02:07:27.714Z,5.65
2023-04-14T02:09:58.035Z,6.35
2023-04-14T02:12:29.296Z,7.60
2023-04-14T02:15:01.124Z,7.65
2023-04-14T02:17:33.031Z,7.32
2023-04-14T02:20:03.249Z,6.45
2023-04-14T02:22:32.432Z,8.93
2023-04-14T02:25:03.055Z,10.40
2023-04-14T02:27:39.390Z,6.25
2023-04-14T02:30:14.338Z,9.20
2023-04-14T02:32:53.760Z,8.88
2023-04-14T02:35:28.572Z,8.88
2023-04-14T02:38:04.226Z,5.68
2023-04-14T02:40:39.402Z,8.80
2023-04-14T02:43:15.067Z,5.57
2023-04-14T02:45:49.266Z,8.05
2023-04-14T02:48:22.786Z,5.25
2023-04-14T02:50:54.113Z,8.45
2023-04-14T02:53:27.794Z,4.85
2023-04-14T02:58:59.966Z,5.40
2023-04-14T03:01:33.261Z,8.95
2023-04-14T03:04:04.326Z,4.63
2023-04-14T03:06:39.411Z,9.25
2023-04-14T03:09:08.808Z,4.32
2023-04-14T03:11:39.456Z,4.93
2023-04-14T03:14:08.952Z,7.85
2023-04-14T03:16:40.021Z,5.82
2023-04-14T03:19:12.738Z,7.28
2023-04-14T03:21:47.212Z,7.40
2023-04-14T03:24:23.244Z,4.85
2023-04-14T03:26:57.502Z,4.40
2023-04-14T03:29:30.281Z,6.32
2023-04-14T03:34:33.196Z,5.00
2023-04-14T03:37:05.605Z,5.40
2023-04-14T03:39:37.740Z,5.90
2023-04-14T03:42:09.149Z,5.43
2023-04-14T03:44:43.125Z,5.30
2023-04-14T03:47:12.407Z,6.72
2023-04-14T03:49:46.990Z,4.25
2023-04-14T03:52:17.013Z,5.63
2023-04-14T03:54:47.715Z,4.50
2023-04-14T03:57:18.761Z,4.60
2023-04-14T03:59:50.995Z,4.20
2023-04-14T04:02:24.526Z,7.25
2023-04-14T04:04:56.993Z,4.82
2023-04-14T04:07:28.685Z,6.18
2023-04-14T04:09:58.392Z,5.70
2023-04-14T04:12:28.660Z,6.70
2023-04-14T04:14:57.595Z,5.45
2023-04-14T04:17:28.670Z,2.67
2023-04-14T04:19:59.777Z,4.72
2023-04-14T04:22:31.687Z,5.75
2023-04-14T04:25:00.729Z,4.53
2023-04-14T04:27:34.679Z,8.60
2023-04-14T04:30:13.533Z,18.20
2023-04-14T04:32:42.467Z,7.95
2023-04-14T04:35:15.525Z,6.13
2023-04-14T04:37:47.341Z,5.68
2023-04-14T04:40:16.888Z,9.07
2023-04-14T04:42:46.395Z,6.22
2023-04-14T04:45:37.582Z,4.40
2023-04-14T04:48:07.441Z,5.47
2023-04-14T04:50:37.735Z,6.40
2023-04-14T04:53:06.863Z,7.32
2023-04-14T04:55:36.105Z,8.32
2023-04-14T04:58:04.934Z,6.13
2023-04-14T05:00:37.153Z,7.30
2023-04-14T05:03:06.267Z,6.80
2023-04-14T05:05:38.506Z,8.50
2023-04-14T05:08:08.021Z,9.95
2023-04-14T05:10:37.629Z,8.27
2023-04-14T05:13:06.513Z,6.20
2023-04-14T05:15:35.390Z,6.45
2023-04-14T05:18:04.276Z,5.40
2023-04-14T05:20:35.072Z,7.05
2023-04-14T05:23:05.640Z,7.55
2023-04-14T05:25:34.554Z,9.27
2023-04-14T05:28:03.438Z,8.05
2023-04-14T05:30:32.193Z,11.45
2023-04-14T05:33:00.998Z,7.57
2023-04-14T05:35:29.962Z,5.40
2023-04-14T05:37:58.994Z,7.35
2023-04-14T05:40:30.315Z,10.45
2023-04-14T05:42:59.322Z,5.93
2023-04-14T05:45:28.443Z,7.63
2023-04-14T05:47:57.410Z,5.13
2023-04-14T05:50:27.049Z,7.45
2023-04-14T05:52:56.138Z,6.63
2023-04-14T05:55:25.397Z,5.43
2023-04-14T05:57:58.768Z,8.85
2023-04-14T06:00:32.639Z,9.77
2023-04-14T06:03:02.018Z,4.47
2023-04-14T06:05:31.165Z,8.10
2023-04-14T06:08:00.023Z,8.73
2023-04-14T06:10:29.069Z,5.93
2023-04-14T06:12:59.503Z,6.75
2023-04-14T06:15:29.670Z,7.65
2023-04-14T06:17:58.707Z,6.65
2023-04-14T06:20:27.475Z,8.07
2023-04-14T06:22:56.490Z,6.72
2023-04-14T06:25:25.346Z,7.40
2023-04-14T06:27:55.879Z,4.60
2023-04-14T06:30:28.581Z,5.35
2023-04-14T06:32:58.134Z,4.60
2023-04-14T06:35:33.001Z,6.80
2023-04-14T06:38:03.307Z,7.93
2023-04-14T06:40:32.281Z,4.00
2023-04-14T06:43:01.176Z,4.95
2023-04-14T06:45:31.666Z,6.55
2023-04-14T06:48:00.771Z,5.22
2023-04-14T06:50:29.854Z,5.57
2023-04-14T06:52:58.690Z,5.18
2023-04-14T06:55:27.644Z,4.45
2023-04-14T06:57:56.467Z,7.25
2023-04-14T07:00:25.435Z,6.10
2023-04-14T07:02:55.685Z,5.40
2023-04-14T07:05:25.485Z,3.50
2023-04-14T07:07:54.531Z,2.47
2023-04-14T07:10:23.455Z,3.25
2023-04-14T07:12:52.298Z,2.95
2023-04-14T07:15:21.509Z,4.32
2023-04-14T07:17:50.414Z,4.72
2023-04-14T07:20:20.708Z,6.53
2023-04-14T07:22:49.591Z,4.65
2023-04-14T07:25:18.432Z,4.72
2023-04-14T07:27:56.512Z,5.38
2023-04-14T07:30:31.781Z,4.07
2023-04-14T07:33:03.237Z,4.70
2023-04-14T07:35:33.988Z,6.97
2023-04-14T07:38:03.063Z,4.82
2023-04-14T07:40:32.100Z,4.65
2023-04-14T07:43:01.011Z,3.95
2023-04-14T07:45:30.151Z,3.45
2023-04-14T07:47:59.456Z,2.38
2023-04-14T07:50:28.649Z,4.40
2023-04-14T07:52:59.438Z,6.65
2023-04-14T07:55:28.419Z,3.20
2023-04-14T07:57:57.455Z,2.08
2023-04-14T08:00:26.812Z,5.25
2023-04-14T08:02:55.816Z,4.70
2023-04-14T08:05:24.796Z,2.28
2023-04-14T08:07:53.666Z,4.82
2023-04-14T08:10:23.854Z,6.30
2023-04-14T08:12:52.914Z,3.25
2023-04-14T08:15:21.918Z,3.25
2023-04-14T08:17:50.902Z,3.90
2023-04-14T08:20:19.866Z,4.40
2023-04-14T08:22:48.732Z,1.42
2023-04-14T08:25:17.738Z,3.50
2023-04-14T08:27:47.963Z,2.05
2023-04-14T08:30:17.193Z,4.70
2023-04-14T08:32:46.152Z,3.08
2023-04-14T08:35:35.419Z,2.03
2023-04-14T08:38:03.863Z,3.97
2023-04-14T08:40:38.983Z,2.22
2023-04-14T08:43:11.739Z,1.98
2023-04-14T08:45:44.868Z,4.00
2023-04-14T08:48:16.701Z,4.00
2023-04-14T08:50:53.580Z,3.38
2023-04-14T08:53:24.726Z,3.13
2023-04-14T08:55:56.821Z,1.17
2023-04-14T08:58:29.432Z,2.53
2023-04-14T09:00:58.927Z,1.40
2023-04-14T09:03:28.905Z,3.13
2023-04-14T09:05:58.641Z,3.08
2023-04-14T09:08:28.337Z,2.75
2023-04-14T09:10:57.460Z,4.15
2023-04-14T09:13:28.791Z,3.50
2023-04-14T09:15:57.862Z,2.22
2023-04-14T09:18:28.341Z,3.53
2023-04-14T09:21:49.906Z,1.63
2023-04-14T09:23:48.506Z,2.75
2023-04-14T09:26:17.632Z,2.03
2023-04-14T09:28:47.909Z,2.40
2023-04-14T09:31:16.895Z,5.03
2023-04-14T09:33:48.854Z,3.22
2023-04-14T09:36:20.500Z,5.07
2023-04-14T09:38:50.713Z,3.47
2023-04-14T09:41:21.904Z,3.10
2023-04-14T09:43:52.791Z,2.63
2023-04-14T09:46:22.552Z,2.08
2023-04-14T09:48:53.211Z,5.22
2023-04-14T09:51:28.537Z,3.85
2023-04-14T09:54:03.883Z,2.13
2023-04-14T09:56:33.086Z,2.80
2023-04-14T09:59:04.033Z,6.47
2023-04-14T10:01:34.963Z,3.65
2023-04-14T10:04:04.455Z,2.13
2023-04-14T10:06:33.576Z,3.00
2023-04-14T10:09:02.988Z,2.58
2023-04-14T10:11:33.545Z,2.53
2023-04-14T10:14:06.285Z,2.47
2023-04-14T10:16:36.031Z,2.15
2023-04-14T10:19:05.617Z,2.13
2023-04-14T10:21:35.768Z,4.05
2023-04-14T10:24:04.832Z,4.80
2023-04-14T10:26:34.907Z,5.68
2023-04-14T10:29:05.246Z,3.22
2023-04-14T10:31:38.880Z,3.10
2023-04-14T10:34:11.777Z,4.00
2023-04-14T10:36:41.483Z,3.92
2023-04-14T10:39:12.575Z,3.42
2023-04-14T10:41:49.124Z,1.98
2023-04-14T10:44:26.890Z,3.80
2023-04-14T10:46:56.827Z,3.10
2023-04-14T10:49:31.357Z,3.55
2023-04-14T10:52:02.407Z,1.58
2023-04-14T10:54:50.036Z,2.17
2023-04-14T10:57:53.128Z,1.90
2023-04-14T11:00:50.546Z,4.65
2023-04-14T11:03:19.931Z,3.28
2023-04-14T11:05:50.929Z,2.00
2023-04-14T11:08:26.414Z,3.17
2023-04-14T11:11:03.088Z,1.48
2023-04-14T11:13:33.202Z,1.90
2023-04-14T11:16:05.775Z,4.00
2023-04-14T11:18:37.164Z,2.78
2023-04-14T11:21:07.504Z,1.55
2023-04-14T11:23:38.445Z,2.15
2023-04-14T11:26:08.384Z,1.58
2023-04-14T11:28:39.278Z,1.38
2023-04-14T11:31:12.175Z,1.95
2023-04-14T11:33:42.498Z,1.88
2023-04-14T11:36:13.568Z,3.20
2023-04-14T11:38:45.888Z,2.30
2023-04-14T11:41:16.974Z,1.63
2023-04-14T11:43:48.854Z,4.57
2023-04-14T11:46:22.126Z,2.28
2023-04-14T11:48:56.401Z,3.72
2023-04-14T11:51:32.652Z,2.33
2023-04-14T11:54:02.369Z,3.50
2023-04-14T11:56:32.528Z,3.25
2023-04-14T11:59:02.461Z,1.10
2023-04-14T12:01:33.339Z,2.08
2023-04-14T12:04:02.394Z,0.82
2023-04-14T12:06:38.697Z,1.92
2023-04-14T12:09:10.488Z,1.08
2023-04-14T12:11:39.357Z,1.65
2023-04-14T12:14:08.238Z,2.38
2023-04-14T12:16:38.810Z,1.52
2023-04-14T12:19:07.789Z,2.55
2023-04-14T12:21:36.733Z,2.17
2023-04-14T12:24:05.883Z,3.60
2023-04-14T12:26:34.941Z,3.70
2023-04-14T12:29:04.407Z,1.48
2023-04-14T12:31:33.358Z,2.50
2023-04-14T12:34:05.456Z,1.20
2023-04-14T12:36:48.099Z,2.72
2023-04-14T12:41:47.881Z,1.20
2023-04-14T12:44:18.010Z,1.48
2023-04-14T12:46:48.945Z,2.85
2023-04-14T12:49:37.299Z,0.75
2023-04-14T12:52:08.410Z,2.80
2023-04-14T12:54:48.160Z,3.80
2023-04-14T12:57:16.985Z,1.88
2023-04-14T12:59:45.930Z,2.72
2023-04-14T13:02:15.524Z,2.85
2023-04-14T13:04:46.683Z,2.35
2023-04-14T13:07:15.641Z,3.80
2023-04-14T13:09:44.656Z,2.47
2023-04-14T13:12:13.894Z,2.05
2023-04-14T13:14:42.839Z,4.50
2023-04-14T13:17:12.071Z,2.20
2023-04-14T13:19:41.042Z,1.65
2023-04-14T13:22:11.372Z,1.95
2023-04-14T13:24:40.514Z,1.60
2023-04-14T13:27:09.462Z,2.35
2023-04-14T13:29:39.202Z,1.95
2023-04-14T13:32:11.121Z,3.45
2023-04-14T13:34:40.775Z,1.88
2023-04-14T13:37:11.072Z,4.40
2023-04-14T13:39:40.164Z,2.53
2023-04-14T13:42:09.291Z,4.45
2023-04-14T13:44:37.983Z,1.48
2023-04-14T13:47:07.062Z,2.03
2023-04-14T13:49:36.027Z,4.22
2023-04-14T13:52:04.946Z,2.53
2023-04-14T13:54:35.665Z,2.65
2023-04-14T13:57:05.078Z,4.30
2023-04-14T13:59:34.459Z,2.92
2023-04-14T14:02:03.706Z,3.85
2023-04-14T14:04:36.292Z,3.08
2023-04-14T14:07:05.984Z,2.55
2023-04-14T14:09:36.382Z,3.75
2023-04-14T14:12:05.980Z,1.27
2023-04-14T14:14:35.385Z,7.40
2023-04-14T14:17:04.688Z,1.35
2023-04-14T14:19:34.308Z,0.70
2023-04-14T14:22:03.704Z,1.95
2023-04-14T14:24:35.175Z,0.85
2023-04-14T14:27:06.474Z,1.92
2023-04-14T14:29:36.210Z,2.53
2023-04-14T14:32:05.711Z,1.50
2023-04-14T14:34:35.343Z,1.50
2023-04-14T14:37:04.387Z,1.10
2023-04-14T14:39:33.829Z,2.83
2023-04-14T14:42:03.089Z,2.15
2023-04-14T14:44:33.355Z,0.82
2023-04-14T14:47:02.386Z,3.42
2023-04-14T14:49:31.810Z,2.78
2023-04-14T14:52:02.575Z,2.13
2023-04-14T14:54:31.681Z,1.58
2023-04-14T14:57:01.526Z,1.52
2023-04-14T14:59:30.449Z,0.95
2023-04-14T15:02:00.719Z,2.15
2023-04-14T15:04:29.864Z,3.08
2023-04-14T15:06:58.817Z,3.33
2023-04-14T15:09:27.549Z,1.25
2023-04-14T15:11:57.028Z,1.80
2023-04-14T15:14:26.444Z,3.25
2023-04-14T15:16:55.667Z,1.58
2023-04-14T15:19:26.683Z,2.45
2023-04-14T15:21:55.948Z,2.35
2023-04-14T15:24:25.108Z,1.83
2023-04-14T15:26:54.584Z,1.65
2023-04-14T15:29:26.027Z,0.90
2023-04-14T15:31:56.142Z,1.20
2023-04-14T15:34:27.244Z,2.47
2023-04-14T15:36:56.517Z,1.45
2023-04-14T15:39:25.449Z,1.48
2023-04-14T15:41:54.450Z,2.22
2023-04-14T15:44:24.096Z,3.63
2023-04-14T15:46:52.807Z,0.80
2023-04-14T15:49:24.533Z,0.85
2023-04-14T15:51:57.210Z,1.17
2023-04-14T15:54:26.158Z,1.50
2023-04-14T15:56:54.941Z,1.80
2023-04-14T15:59:25.086Z,1.58
2023-04-14T16:01:53.960Z,1.17
2023-04-14T16:04:23.402Z,4.20
2023-04-14T16:06:52.424Z,1.48
2023-04-14T16:09:22.891Z,4.47
2023-04-14T16:11:51.894Z,1.90
2023-04-14T16:14:21.205Z,1.02
2023-04-14T16:16:50.031Z,2.03
2023-04-14T16:19:18.922Z,1.13
2023-04-14T16:21:48.300Z,2.50
2023-04-14T16:24:17.166Z,1.75
2023-04-14T16:26:48.283Z,2.33
2023-04-14T16:29:17.406Z,4.38
2023-04-14T16:31:46.574Z,1.02
2023-04-14T16:34:15.742Z,1.88
2023-04-14T16:36:46.597Z,0.90
2023-04-14T16:39:15.772Z,0.70
2023-04-14T16:41:46.454Z,1.83
2023-04-14T16:44:15.597Z,2.63
2023-04-14T16:46:51.782Z,2.42
2023-04-14T16:49:22.889Z,1.10
2023-04-14T16:51:51.818Z,1.10
2023-04-14T16:54:20.678Z,1.70
2023-04-14T16:56:53.974Z,3.17
2023-04-14T16:59:22.974Z,1.65
2023-04-14T17:01:51.875Z,2.38
2023-04-14T17:04:21.046Z,2.35
2023-04-14T17:06:50.112Z,2.10
2023-04-14T17:09:19.032Z,1.23
2023-04-14T17:11:49.897Z,1.13
2023-04-14T17:14:20.221Z,10.52
2023-04-14T17:16:49.265Z,2.67
2023-04-14T17:19:18.128Z,1.42
2023-04-14T17:21:47.041Z,2.60
2023-04-14T17:24:16.275Z,1.63
2023-04-14T17:26:47.782Z,0.80
2023-04-14T17:29:17.109Z,1.42
2023-04-14T17:31:48.345Z,2.25
2023-04-14T17:34:19.439Z,0.63
2023-04-14T17:36:49.832Z,3.92
2023-04-14T17:39:21.420Z,3.88
2023-04-14T17:41:50.693Z,5.93
2023-04-14T17:44:19.981Z,1.70
2023-04-14T17:46:50.422Z,3.38
2023-04-14T17:49:21.088Z,1.80
2023-04-14T17:51:49.954Z,2.15
2023-04-14T17:54:18.887Z,2.08
2023-04-14T17:56:47.906Z,1.85
2023-04-14T17:59:17.281Z,0.50
2023-04-14T18:01:46.207Z,0.65
2023-04-14T18:04:17.206Z,1.20
2023-04-14T18:06:46.345Z,1.17
2023-04-14T18:09:15.765Z,2.58
2023-04-14T18:11:44.463Z,1.73
2023-04-14T18:14:13.843Z,2.30
2023-04-14T18:16:42.864Z,1.88
2023-04-14T18:19:11.765Z,1.30
2023-04-14T18:21:43.793Z,0.95
2023-04-14T18:26:46.001Z,1.10
2023-04-14T18:29:14.880Z,1.77
2023-04-14T18:31:43.817Z,1.83
2023-04-14T18:34:14.046Z,1.23
2023-04-14T18:36:44.371Z,1.48
2023-04-14T18:39:14.789Z,4.00
2023-04-14T18:41:44.032Z,1.77
2023-04-14T18:44:13.372Z,1.85
2023-04-14T18:46:42.367Z,1.67
2023-04-14T18:49:11.720Z,1.77
2023-04-14T18:51:40.552Z,1.85
2023-04-14T18:54:10.676Z,2.38
2023-04-14T18:56:39.402Z,3.17
2023-04-14T18:59:09.259Z,2.63
2023-04-14T19:01:38.102Z,3.03
2023-04-14T19:04:07.697Z,2.88
2023-04-14T19:06:36.697Z,3.28
2023-04-14T19:09:05.645Z,4.65
2023-04-14T19:11:36.915Z,5.75
2023-04-14T19:14:06.151Z,5.65
2023-04-14T19:16:35.280Z,4.45
2023-04-14T19:19:04.940Z,4.45
2023-04-14T19:21:33.979Z,4.63
2023-04-14T19:24:02.804Z,6.05
2023-04-14T19:26:31.649Z,4.03
2023-04-14T19:29:02.448Z,5.38
2023-04-14T19:31:31.462Z,3.22
2023-04-14T19:34:00.564Z,2.97
2023-04-14T19:36:32.330Z,1.60
2023-04-14T19:39:01.544Z,3.42
2023-04-14T19:41:30.511Z,2.95
2023-04-14T19:44:04.724Z,3.17
2023-04-14T19:46:35.682Z,3.17
2023-04-14T19:49:05.536Z,4.70
2023-04-14T19:51:35.185Z,3.70
2023-04-14T19:54:05.611Z,2.45
2023-04-14T19:56:35.127Z,2.22
2023-04-14T19:59:05.602Z,4.35
2023-04-14T20:01:34.716Z,2.72
2023-04-14T20:04:05.552Z,2.70
2023-04-14T20:06:40.649Z,2.38
2023-04-14T20:09:09.769Z,3.22
2023-04-14T20:11:38.620Z,5.05
2023-04-14T20:14:08.879Z,5.88
2023-04-14T20:16:38.601Z,4.07
2023-04-14T20:19:07.462Z,5.15
2023-04-14T20:21:39.617Z,3.85
2023-04-14T20:24:08.454Z,2.55
2023-04-14T20:26:42.649Z,3.75
2023-04-14T20:29:13.401Z,3.70
2023-04-14T20:31:42.778Z,3.88
2023-04-14T20:34:12.127Z,5.93
2023-04-14T20:36:41.081Z,5.43
2023-04-14T20:39:09.882Z,3.80
2023-04-14T20:41:38.805Z,3.40
2023-04-14T20:44:07.755Z,3.72
2023-04-14T20:46:38.460Z,5.43
2023-04-14T20:49:07.546Z,4.03
2023-04-14T20:51:37.074Z,4.00
2023-04-14T20:54:05.998Z,3.85
2023-04-14T20:56:34.904Z,4.78
2023-04-14T20:59:03.959Z,4.60
2023-04-14T21:01:33.006Z,5.68
2023-04-14T21:04:03.220Z,4.97
2023-04-14T21:06:33.170Z,6.03
2023-04-14T21:09:02.442Z,4.28
2023-04-14T21:11:31.767Z,5.22
2023-04-14T21:15:29.229Z,6.93
2023-04-14T21:16:49.637Z,6.43
2023-04-14T21:19:20.031Z,6.05
2023-04-14T21:21:49.015Z,4.43
2023-04-14T21:24:18.407Z,6.63
2023-04-14T21:26:47.541Z,4.32
2023-04-14T21:29:16.375Z,5.25
2023-04-14T21:31:45.359Z,4.20
2023-04-14T21:34:14.629Z,3.75
2023-04-14T21:36:47.120Z,3.33
2023-04-14T21:41:44.738Z,4.88
2023-04-14T21:44:15.669Z,3.83
2023-04-14T21:46:44.741Z,4.20
2023-04-14T21:49:13.820Z,4.18
2023-04-14T21:51:44.027Z,7.35
2023-04-14T21:54:13.267Z,5.28
2023-04-14T21:56:42.079Z,2.65
2023-04-14T21:59:11.644Z,4.50
2023-04-14T22:01:41.176Z,3.33
2023-04-14T22:04:25.092Z,3.80
2023-04-14T22:06:59.314Z,3.22
2023-04-14T22:09:28.137Z,2.95
2023-04-14T22:11:57.772Z,5.38
2023-04-14T22:14:27.820Z,5.50
2023-04-14T22:16:56.967Z,4.63
2023-04-14T22:19:28.598Z,5.07
2023-04-14T22:22:00.051Z,4.72
2023-04-14T22:24:30.394Z,4.60
2023-04-14T22:26:59.955Z,3.78
2023-04-14T22:29:29.818Z,5.65
2023-04-14T22:31:58.491Z,5.03
2023-04-14T22:34:27.867Z,8.40
2023-04-14T22:36:58.781Z,4.80
2023-04-14T22:39:28.354Z,7.18
2023-04-14T22:41:57.773Z,4.20
2023-04-14T22:44:26.551Z,5.88
2023-04-14T22:46:56.210Z,6.47
2023-04-14T22:49:25.278Z,8.10
2023-04-14T22:51:54.100Z,4.40
2023-04-14T22:54:24.385Z,6.95
2023-04-14T22:56:53.816Z,7.68
2023-04-14T22:59:22.524Z,8.95
2023-04-14T23:01:51.580Z,6.35
2023-04-14T23:04:20.689Z,6.93
2023-04-14T23:06:49.952Z,6.80
2023-04-14T23:09:18.978Z,6.85
2023-04-14T23:11:49.491Z,7.50
2023-04-14T23:14:18.411Z,5.78
2023-04-14T23:16:47.241Z,5.47
2023-04-14T23:19:16.900Z,5.72
2023-04-14T23:21:51.082Z,5.07
2023-04-14T23:24:20.769Z,4.72
2023-04-14T23:26:51.097Z,4.53
2023-04-14T23:29:20.058Z,6.80
2023-04-14T23:31:49.042Z,5.68
2023-04-14T23:34:17.923Z,13.63
2023-04-14T23:36:47.544Z,17.27
2023-04-14T23:39:16.445Z,14.88
2023-04-14T23:41:45.337Z,13.15
2023-04-14T23:44:15.646Z,10.10
2023-04-14T23:46:45.121Z,11.55
2023-04-14T23:49:24.631Z,8.40
2023-04-14T23:52:03.301Z,8.73
2023-04-14T23:54:32.749Z,9.95
2023-04-14T23:57:01.757Z,8.05
2023-04-14T23:59:32.097Z,5.00
